Time;durP1;ratioP1;P1;durP2;ratioP2;P2;SDS_P1;SDS_P2;PMS_P1;PMS_P2;Temp;Humidity;BMP_temperature;BMP_pressure;BME280_temperature;BME280_humidity;BME280_pressure;Samples;Min_cycle;Max_cycle;Signal;HPM_P1;HPM_P2
2021/11/13 00:02:05;;;;;;;44.58;40.90;;;2.50;94.20;;;;;;5008694;28;20207;-72
2021/11/13 00:04:32;;;;;;;43.67;40.08;;;2.50;94.90;;;;;;5004762;28;20327;-73
2021/11/13 00:07:00;;;;;;;45.92;41.88;;;2.40;95.70;;;;;;5008208;28;20208;-75
2021/11/13 00:09:27;;;;;;;182.15;56.90;;;2.50;95.60;;;;;;5005232;28;20223;-72
2021/11/13 00:11:54;;;;;;;47.05;43.00;;;2.50;97.50;;;;;;5008718;28;20231;-75
2021/11/13 00:14:21;;;;;;;46.83;42.63;;;2.60;97.80;;;;;;5004143;28;20555;-72
2021/11/13 00:16:48;;;;;;;45.05;41.10;;;2.60;97.00;;;;;;5005844;28;20211;-73
2021/11/13 00:19:15;;;;;;;44.53;40.67;;;2.60;95.70;;;;;;5005951;28;20208;-72
2021/11/13 00:21:43;;;;;;;45.25;41.15;;;2.60;95.30;;;;;;5006263;28;20204;-74
2021/11/13 00:24:12;;;;;;;45.42;41.33;;;2.50;95.60;;;;;;5000765;28;20246;-72
2021/11/13 00:26:39;;;;;;;45.10;40.78;;;2.50;98.10;;;;;;5005635;28;20197;-74
2021/11/13 00:29:06;;;;;;;44.20;40.28;;;2.60;98.30;;;;;;5006790;28;20205;-72
2021/11/13 00:31:33;;;;;;;44.00;39.95;;;2.60;98.30;;;;;;5007665;28;20225;-72
2021/11/13 00:34:00;;;;;;;45.00;41.00;;;2.60;97.50;;;;;;5000937;28;20217;-71
2021/11/13 00:36:27;;;;;;;43.63;39.83;;;2.70;96.80;;;;;;5005239;28;20197;-71
2021/11/13 00:38:54;;;;;;;46.08;41.97;;;2.60;96.80;;;;;;5005297;28;20320;-71
2021/11/13 00:41:23;;;;;;;45.85;41.95;;;2.70;96.60;;;;;;5006809;28;20678;-73
2021/11/13 00:43:50;;;;;;;44.63;40.72;;;2.70;96.60;;;;;;5004763;28;20225;-71
2021/11/13 00:46:17;;;;;;;42.75;39.15;;;2.70;96.60;;;;;;5005320;28;20227;-74
2021/11/13 00:48:44;;;;;;;44.40;40.47;;;2.80;96.40;;;;;;5004151;28;20673;-73
2021/11/13 00:51:11;;;;;;;48.15;43.50;;;2.80;96.20;;;;;;5006939;28;20686;-72
2021/11/13 00:53:38;;;;;;;45.90;41.90;;;3.00;96.10;;;;;;5006363;28;20619;-74
2021/11/13 00:56:05;;;;;;;47.25;42.75;;;3.00;95.40;;;;;;5007992;28;20208;-72
2021/11/13 00:58:34;;;;;;;47.47;43.20;;;3.00;95.60;;;;;;5006095;28;20216;-72
2021/11/13 01:01:02;;;;;;;48.65;44.00;;;3.00;95.80;;;;;;5007013;28;20940;-73
2021/11/13 01:03:29;;;;;;;48.67;43.92;;;2.80;96.20;;;;;;5004436;28;20221;-72
2021/11/13 01:05:55;;;;;;;48.97;44.35;;;2.80;96.80;;;;;;5007615;28;20214;-72
2021/11/13 01:08:22;;;;;;;46.70;42.20;;;2.80;97.00;;;;;;5006207;28;20193;-75
2021/11/13 01:10:49;;;;;;;48.70;44.22;;;2.90;97.10;;;;;;5000474;28;20563;-70
2021/11/13 01:13:17;;;;;;;48.40;43.53;;;3.00;97.10;;;;;;5004725;28;20228;-69
2021/11/13 01:15:45;;;;;;;45.08;40.85;;;3.10;97.10;;;;;;5005517;28;20202;-71
2021/11/13 01:18:12;;;;;;;44.42;40.42;;;3.20;95.90;;;;;;5005917;28;20201;-71
2021/11/13 01:20:39;;;;;;;44.45;40.38;;;3.10;95.50;;;;;;5005434;28;20212;-70
2021/11/13 01:23:06;;;;;;;42.80;39.08;;;3.00;94.90;;;;;;5005533;28;20216;-70
2021/11/13 01:25:33;;;;;;;47.78;43.30;;;3.10;94.60;;;;;;5005956;28;20248;-71
2021/11/13 01:28:01;;;;;;;43.58;39.72;;;3.00;94.20;;;;;;5006827;28;20198;-70
2021/11/13 01:30:28;;;;;;;45.25;40.90;;;2.80;94.90;;;;;;5003743;28;20762;-70
2021/11/13 01:32:56;;;;;;;46.05;41.78;;;2.80;95.30;;;;;;5006147;28;20232;-70
2021/11/13 01:35:24;;;;;;;47.22;43.10;;;2.80;95.70;;;;;;5002359;28;20205;-70
2021/11/13 01:37:52;;;;;;;50.47;41.35;;;2.90;95.80;;;;;;5007104;28;20287;-69
2021/11/13 01:40:22;;;;;;;55.97;41.90;;;2.60;95.90;;;;;;5003546;28;20201;-70
2021/11/13 01:42:50;;;;;;;52.53;41.45;;;2.40;97.00;;;;;;5006777;28;20328;-70
2021/11/13 01:45:18;;;;;;;46.63;41.65;;;2.30;98.00;;;;;;5002877;28;20204;-70
2021/11/13 01:47:46;;;;;;;46.88;42.22;;;2.30;98.00;;;;;;5002007;28;20205;-70
2021/11/13 01:50:17;;;;;;;46.22;41.83;;;2.40;98.00;;;;;;5004115;28;20230;-70
2021/11/13 01:52:44;;;;;;;52.75;44.22;;;2.30;98.00;;;;;;5006334;28;20701;-70
2021/11/13 01:55:12;;;;;;;367.77;82.63;;;2.30;98.50;;;;;;5004002;28;20199;-70
2021/11/13 01:57:46;;;;;;;48.78;43.30;;;2.30;99.90;;;;;;5004848;28;20203;-70
2021/11/13 02:00:17;;;;;;;47.67;43.15;;;2.40;99.90;;;;;;5003641;28;20208;-70
2021/11/13 02:02:44;;;;;;;52.55;43.42;;;2.40;99.70;;;;;;5007854;28;20708;-70
2021/11/13 02:05:11;;;;;;;50.38;41.63;;;2.40;99.90;;;;;;4996713;28;20296;-70
2021/11/13 02:07:39;;;;;;;46.83;41.72;;;2.40;99.30;;;;;;5008985;28;20212;-70
2021/11/13 02:10:08;;;;;;;54.75;42.95;;;2.30;99.00;;;;;;5008162;28;20239;-70
2021/11/13 02:12:35;;;;;;;219.50;57.25;;;2.20;99.20;;;;;;5009824;28;20222;-70
2021/11/13 02:15:02;;;;;;;46.78;41.72;;;2.30;99.30;;;;;;5009479;28;20201;-70
2021/11/13 02:17:29;;;;;;;46.15;41.90;;;2.30;99.60;;;;;;5009343;28;20201;-70
2021/11/13 02:20:14;;;;;;;46.25;41.80;;;2.40;99.40;;;;;;5009181;28;20217;-70
2021/11/13 02:22:41;;;;;;;49.35;42.83;;;2.50;99.10;;;;;;5003719;28;20627;-70
2021/11/13 02:25:08;;;;;;;46.15;41.60;;;2.50;99.10;;;;;;5006558;28;20211;-70
2021/11/13 02:27:35;;;;;;;53.47;43.35;;;2.60;99.10;;;;;;5008660;28;20254;-73
2021/11/13 02:30:04;;;;;;;44.38;40.05;;;2.70;98.70;;;;;;5005579;28;20595;-73
2021/11/13 02:32:30;;;;;;;47.95;42.90;;;2.70;97.70;;;;;;5005532;28;20316;-75
2021/11/13 02:34:59;;;;;;;43.72;39.53;;;2.60;98.20;;;;;;5009442;28;20211;-72
2021/11/13 02:37:27;;;;;;;44.63;40.03;;;2.60;98.50;;;;;;5007820;28;20205;-71
2021/11/13 02:39:55;;;;;;;46.97;42.25;;;2.70;98.50;;;;;;5009072;28;20208;-73
2021/11/13 02:42:23;;;;;;;45.42;40.80;;;2.80;98.10;;;;;;5006129;28;20243;-72
2021/11/13 02:44:50;;;;;;;44.67;40.60;;;2.80;97.50;;;;;;5003469;28;20563;-72
2021/11/13 02:47:18;;;;;;;47.53;42.63;;;2.80;97.50;;;;;;5008867;28;20201;-73
2021/11/13 02:49:46;;;;;;;48.13;43.00;;;2.70;97.70;;;;;;5008394;28;20201;-72
2021/11/13 02:52:15;;;;;;;45.88;41.17;;;2.80;97.90;;;;;;5008426;28;20681;-72
2021/11/13 02:54:43;;;;;;;47.95;42.40;;;2.70;97.70;;;;;;4997506;28;20210;-74
2021/11/13 02:57:10;;;;;;;45.60;40.80;;;2.70;97.30;;;;;;5005373;28;20220;-69
2021/11/13 02:59:42;;;;;;;556.15;85.78;;;2.50;98.00;;;;;;5007643;28;20205;-70
2021/11/13 03:02:09;;;;;;;50.75;41.75;;;2.50;99.30;;;;;;5009003;28;20204;-70
2021/11/13 03:04:37;;;;;;;200.63;56.53;;;2.50;99.90;;;;;;5005061;28;20514;-70
2021/11/13 03:07:06;;;;;;;43.78;39.38;;;2.60;99.90;;;;;;5007221;28;20200;-70
2021/11/13 03:09:35;;;;;;;43.22;39.30;;;2.80;99.80;;;;;;5007341;28;20213;-70
2021/11/13 03:12:02;;;;;;;44.75;40.35;;;2.90;99.10;;;;;;5009651;28;20201;-69
2021/11/13 03:14:29;;;;;;;42.65;38.85;;;3.00;98.60;;;;;;5005711;28;20317;-70
2021/11/13 03:17:00;;;;;;;44.45;40.00;;;3.10;98.50;;;;;;5007475;28;20667;-71
2021/11/13 03:19:27;;;;;;;1999.90;393.80;;;3.10;97.80;;;;;;5005628;28;20679;-70
2021/11/13 03:21:54;;;;;;;1993.28;297.92;;;3.20;97.60;;;;;;5008431;28;20197;-70
2021/11/13 03:24:22;;;;;;;280.38;64.97;;;3.10;99.70;;;;;;5006639;28;20200;-70
2021/11/13 03:26:51;;;;;;;40.70;36.92;;;3.20;99.00;;;;;;5008361;28;20205;-70
2021/11/13 03:29:22;;;;;;;41.75;37.65;;;3.20;99.00;;;;;;5007259;28;20194;-70
2021/11/13 03:31:49;;;;;;;42.40;38.40;;;3.10;98.60;;;;;;5008091;28;20205;-70
2021/11/13 03:34:16;;;;;;;39.72;36.22;;;3.10;97.10;;;;;;5006515;28;20654;-69
2021/11/13 03:36:43;;;;;;;41.17;37.45;;;3.10;96.60;;;;;;5005180;28;20207;-69
2021/11/13 03:39:10;;;;;;;41.55;37.83;;;3.10;95.70;;;;;;5006111;28;20204;-70
2021/11/13 03:41:38;;;;;;;38.08;34.78;;;2.90;96.00;;;;;;5006999;28;20208;-70
2021/11/13 03:44:06;;;;;;;39.58;36.17;;;2.90;96.30;;;;;;5005626;28;20220;-70
2021/11/13 03:46:34;;;;;;;39.58;36.28;;;2.90;95.60;;;;;;5006998;28;20200;-70
2021/11/13 03:49:01;;;;;;;38.78;35.28;;;2.90;95.20;;;;;;5006686;28;20674;-70
2021/11/13 03:51:28;;;;;;;39.30;36.00;;;2.80;95.40;;;;;;5006210;28;20274;-72
2021/11/13 03:53:55;;;;;;;38.60;35.25;;;2.70;95.90;;;;;;5005387;28;20702;-73
2021/11/13 03:56:22;;;;;;;39.10;35.60;;;2.80;95.90;;;;;;5007659;28;20480;-72
2021/11/13 03:58:49;;;;;;;38.03;34.83;;;3.00;95.70;;;;;;5005604;28;20320;-74
2021/11/13 04:01:18;;;;;;;37.95;34.90;;;3.10;94.90;;;;;;5005216;28;20201;-73
2021/11/13 04:03:44;;;;;;;37.78;34.70;;;3.10;94.60;;;;;;5004728;28;20236;-72
2021/11/13 04:06:11;;;;;;;35.50;32.60;;;3.00;94.40;;;;;;5006903;28;20646;-74
2021/11/13 04:08:38;;;;;;;39.10;35.70;;;3.00;94.40;;;;;;5002137;28;20572;-77
2021/11/13 04:11:05;;;;;;;36.08;33.28;;;3.00;94.10;;;;;;5008106;28;20742;-72
2021/11/13 04:13:32;;;;;;;37.80;34.90;;;3.00;93.90;;;;;;5006180;28;20225;-71
2021/11/13 04:15:59;;;;;;;37.20;33.95;;;3.00;93.90;;;;;;5007816;28;20204;-72
2021/11/13 04:18:27;;;;;;;37.60;34.50;;;3.10;93.90;;;;;;5006841;28;20203;-70
2021/11/13 04:20:54;;;;;;;36.15;33.30;;;3.10;93.50;;;;;;5001762;28;20213;-70
2021/11/13 04:23:21;;;;;;;38.50;35.50;;;3.10;93.40;;;;;;5004959;28;20208;-70
2021/11/13 04:25:48;;;;;;;36.25;33.42;;;3.10;93.40;;;;;;5002149;28;20208;-70
2021/11/13 04:28:15;;;;;;;38.15;35.05;;;3.00;93.70;;;;;;5006384;28;20212;-70
2021/11/13 04:30:42;;;;;;;40.75;37.45;;;3.10;93.80;;;;;;5006409;28;20204;-70
2021/11/13 04:33:09;;;;;;;36.70;33.70;;;3.00;94.10;;;;;;5007368;28;20734;-70
2021/11/13 04:35:48;;;;;;;39.40;36.10;;;3.10;94.10;;;;;;5000184;28;20208;-69
2021/11/13 04:38:16;;;;;;;37.70;34.70;;;3.20;93.80;;;;;;5006117;28;20215;-70
2021/11/13 04:40:43;;;;;;;38.45;35.35;;;3.30;93.30;;;;;;5000195;28;20723;-70
2021/11/13 04:43:10;;;;;;;40.95;37.65;;;3.40;92.90;;;;;;5001421;28;20242;-70
2021/11/13 04:45:37;;;;;;;40.00;36.65;;;3.30;93.10;;;;;;5004005;28;20206;-70
2021/11/13 04:48:04;;;;;;;39.42;36.08;;;3.30;93.30;;;;;;5007792;28;20284;-70
2021/11/13 04:50:33;;;;;;;347.33;78.13;;;3.50;93.00;;;;;;4999616;28;20202;-70
2021/11/13 04:53:02;;;;;;;38.08;34.88;;;3.50;92.70;;;;;;5000787;28;20584;-69
2021/11/13 04:55:30;;;;;;;225.70;55.80;;;3.50;93.70;;;;;;5004597;28;20710;-69
2021/11/13 04:57:57;;;;;;;109.05;42.00;;;3.50;95.30;;;;;;5005675;28;20846;-70
2021/11/13 05:00:26;;;;;;;37.47;34.35;;;3.60;94.60;;;;;;4999403;28;20292;-70
2021/11/13 05:02:55;;;;;;;37.22;34.15;;;3.60;94.00;;;;;;5006982;28;20210;-75
2021/11/13 05:05:22;;;;;;;39.63;36.42;;;3.60;95.10;;;;;;5003881;28;20194;-70
2021/11/13 05:07:49;;;;;;;38.47;35.42;;;3.60;93.60;;;;;;5006874;28;20223;-70
2021/11/13 05:10:18;;;;;;;36.80;33.80;;;3.60;93.20;;;;;;5003886;28;20198;-70
2021/11/13 05:12:45;;;;;;;37.92;34.88;;;3.60;93.30;;;;;;5005945;28;20232;-70
2021/11/13 05:15:12;;;;;;;36.78;33.83;;;3.60;93.20;;;;;;5004749;28;20323;-71
2021/11/13 05:17:39;;;;;;;37.25;32.83;;;3.70;92.70;;;;;;5005102;28;20576;-70
2021/11/13 05:20:09;;;;;;;82.60;37.17;;;3.70;93.10;;;;;;5006464;28;20216;-70
2021/11/13 05:22:36;;;;;;;36.92;33.95;;;3.70;92.80;;;;;;5005680;28;20228;-69
2021/11/13 05:25:04;;;;;;;36.78;33.85;;;3.70;93.30;;;;;;4999967;28;20197;-70
2021/11/13 05:27:32;;;;;;;37.25;34.08;;;3.70;92.80;;;;;;5007450;28;20205;-70
2021/11/13 05:29:59;;;;;;;35.45;32.60;;;3.70;92.50;;;;;;5002586;28;20216;-70
2021/11/13 05:32:26;;;;;;;38.72;35.72;;;3.70;92.50;;;;;;5007066;28;20224;-71
2021/11/13 05:34:53;;;;;;;36.70;34.00;;;3.80;92.70;;;;;;5004450;28;20238;-70
2021/11/13 05:37:20;;;;;;;55.95;34.92;;;3.90;92.00;;;;;;5001719;28;20204;-70
2021/11/13 05:39:47;;;;;;;35.28;32.53;;;3.90;92.20;;;;;;5002901;28;20299;-70
2021/11/13 05:42:15;;;;;;;35.60;32.90;;;3.90;92.80;;;;;;5011325;28;20217;-70
2021/11/13 05:44:43;;;;;;;34.10;31.67;;;3.90;92.40;;;;;;5010505;28;20197;-70
2021/11/13 05:47:10;;;;;;;36.85;34.13;;;4.00;91.90;;;;;;5009347;28;20202;-72
2021/11/13 05:49:38;;;;;;;36.45;33.65;;;4.00;91.70;;;;;;5007613;28;20291;-73
2021/11/13 05:52:06;;;;;;;36.72;34.00;;;4.00;91.80;;;;;;5010045;28;20194;-70
2021/11/13 05:54:33;;;;;;;101.90;40.20;;;3.90;91.60;;;;;;5007992;28;21061;-71
2021/11/13 05:57:00;;;;;;;37.53;34.78;;;3.90;92.60;;;;;;5007651;28;20209;-69
2021/11/13 05:59:27;;;;;;;33.78;31.35;;;3.90;94.00;;;;;;5009417;28;20627;-70
2021/11/13 06:01:55;;;;;;;36.30;33.42;;;4.00;92.80;;;;;;5009657;28;20202;-70
2021/11/13 06:04:22;;;;;;;34.25;31.75;;;4.10;92.20;;;;;;5002303;28;20197;-70
2021/11/13 06:06:49;;;;;;;34.78;31.98;;;4.10;91.50;;;;;;5004704;28;20257;-72
2021/11/13 06:09:15;;;;;;;33.25;30.83;;;4.20;91.10;;;;;;5003281;28;20230;-74
2021/11/13 06:11:42;;;;;;;35.53;32.83;;;4.20;91.10;;;;;;5008269;28;20680;-72
2021/11/13 06:14:09;;;;;;;36.25;33.30;;;4.20;90.80;;;;;;5008550;28;20217;-74
2021/11/13 06:16:36;;;;;;;36.42;33.55;;;4.20;91.50;;;;;;5010058;28;20198;-75
2021/11/13 06:19:05;;;;;;;35.83;32.97;;;4.20;91.60;;;;;;5008596;28;20212;-75
2021/11/13 06:21:32;;;;;;;35.95;33.15;;;4.30;91.00;;;;;;5009836;28;20202;-72
2021/11/13 06:23:59;;;;;;;34.97;32.13;;;4.30;90.70;;;;;;5009750;28;20220;-72
2021/11/13 06:26:25;;;;;;;34.60;31.70;;;4.30;90.80;;;;;;5007236;28;20202;-73
2021/11/13 06:28:52;;;;;;;34.85;32.08;;;4.40;90.50;;;;;;5006503;28;20217;-72
2021/11/13 06:31:19;;;;;;;34.58;31.83;;;4.40;90.50;;;;;;5001312;28;20194;-72
2021/11/13 06:33:46;;;;;;;34.28;31.58;;;4.40;90.90;;;;;;5002847;28;20228;-73
2021/11/13 06:36:14;;;;;;;35.25;32.50;;;4.40;90.60;;;;;;5008485;28;20209;-74
2021/11/13 06:38:41;;;;;;;34.00;31.42;;;4.40;90.80;;;;;;5008386;28;20206;-72
2021/11/13 06:41:08;;;;;;;35.35;32.55;;;4.50;90.80;;;;;;5010328;28;20197;-74
2021/11/13 06:43:35;;;;;;;34.17;31.48;;;4.50;90.40;;;;;;5006999;28;20222;-74
2021/11/13 06:46:02;;;;;;;35.15;32.33;;;4.60;90.30;;;;;;5008557;28;20235;-72
2021/11/13 06:48:29;;;;;;;33.45;30.75;;;4.60;90.10;;;;;;5006500;28;20198;-72
2021/11/13 06:50:56;;;;;;;34.13;31.15;;;4.70;89.80;;;;;;5010704;28;20209;-72
2021/11/13 06:53:24;;;;;;;33.80;31.20;;;4.70;90.10;;;;;;5007239;28;20222;-72
2021/11/13 06:55:51;;;;;;;31.65;29.02;;;4.70;90.00;;;;;;5006898;28;20203;-72
2021/11/13 06:58:19;;;;;;;34.35;31.58;;;4.70;90.20;;;;;;5007655;28;20205;-74
2021/11/13 07:00:46;;;;;;;34.45;31.95;;;4.70;90.00;;;;;;5000212;28;20202;-72
2021/11/13 07:03:13;;;;;;;35.40;32.50;;;4.80;90.00;;;;;;5006864;28;20703;-76
2021/11/13 07:05:40;;;;;;;34.20;31.50;;;4.80;89.60;;;;;;5009062;28;20190;-72
2021/11/13 07:08:07;;;;;;;36.15;32.97;;;4.80;89.90;;;;;;5009158;28;20205;-70
2021/11/13 07:10:36;;;;;;;34.90;32.00;;;4.90;90.20;;;;;;5007905;28;20659;-72
2021/11/13 07:13:03;;;;;;;32.95;30.45;;;5.00;89.60;;;;;;5008302;28;20221;-71
2021/11/13 07:15:32;;;;;;;35.45;32.65;;;5.00;89.30;;;;;;5009856;28;20226;-72
2021/11/13 07:18:00;;;;;;;34.63;31.77;;;5.00;89.40;;;;;;5009887;28;20228;-72
2021/11/13 07:20:27;;;;;;;35.22;32.50;;;4.90;89.10;;;;;;5002405;28;20292;-70
2021/11/13 07:22:55;;;;;;;34.35;31.55;;;4.90;89.40;;;;;;5004766;28;20218;-71
2021/11/13 07:25:25;;;;;;;34.47;31.98;;;5.00;89.20;;;;;;5007596;28;20272;-70
2021/11/13 07:27:59;;;;;;;36.45;33.55;;;5.10;89.10;;;;;;5009599;28;20617;-71
2021/11/13 07:30:28;;;;;;;36.35;33.75;;;5.10;89.00;;;;;;5006849;28;20197;-72
2021/11/13 07:32:55;;;;;;;35.78;33.25;;;5.10;89.00;;;;;;5005676;28;20315;-70
2021/11/13 07:35:22;;;;;;;36.22;33.25;;;5.20;88.70;;;;;;5005111;28;20596;-72
2021/11/13 07:37:49;;;;;;;34.00;31.40;;;5.20;88.40;;;;;;5007680;28;20680;-73
2021/11/13 07:40:16;;;;;;;35.55;32.65;;;5.40;88.00;;;;;;5006972;28;20574;-74
2021/11/13 07:42:43;;;;;;;35.35;32.65;;;5.40;87.80;;;;;;5008006;28;20576;-74
2021/11/13 07:45:12;;;;;;;34.78;32.17;;;5.40;87.30;;;;;;5007278;28;20667;-74
2021/11/13 07:47:41;;;;;;;34.28;31.77;;;5.40;87.90;;;;;;5008889;28;20210;-74
2021/11/13 07:50:09;;;;;;;33.47;31.00;;;5.50;87.60;;;;;;5006704;28;20202;-74
2021/11/13 07:52:36;;;;;;;35.10;32.60;;;5.50;87.60;;;;;;5006935;28;20573;-73
2021/11/13 07:55:04;;;;;;;34.90;32.13;;;5.60;87.20;;;;;;5006955;28;20222;-78
2021/11/13 07:57:31;;;;;;;34.55;31.95;;;5.60;87.10;;;;;;5008527;28;20204;-74
2021/11/13 07:59:58;;;;;;;32.80;30.30;;;5.70;86.90;;;;;;5005104;28;20201;-76
2021/11/13 08:02:26;;;;;;;34.10;31.50;;;5.80;86.70;;;;;;5008354;28;20300;-74
2021/11/13 08:04:54;;;;;;;33.15;30.48;;;5.80;86.50;;;;;;5005581;28;20198;-74
2021/11/13 08:07:21;;;;;;;33.70;31.13;;;5.90;85.80;;;;;;5008757;28;20679;-75
2021/11/13 08:09:48;;;;;;;32.95;30.65;;;6.00;85.30;;;;;;5008166;28;20502;-75
2021/11/13 08:12:14;;;;;;;32.83;30.52;;;6.10;85.00;;;;;;5008244;28;20317;-75
2021/11/13 08:14:41;;;;;;;32.33;29.65;;;6.30;84.20;;;;;;5006784;28;20214;-75
2021/11/13 08:17:08;;;;;;;32.70;30.25;;;6.30;83.80;;;;;;5008109;28;20607;-74
2021/11/13 08:19:36;;;;;;;30.30;28.10;;;6.30;83.80;;;;;;4998316;28;20579;-77
2021/11/13 08:22:04;;;;;;;30.27;28.17;;;6.30;84.10;;;;;;5007154;28;20285;-71
2021/11/13 08:24:31;;;;;;;31.65;29.17;;;6.40;83.70;;;;;;4997783;28;20381;-72
2021/11/13 08:26:57;;;;;;;32.10;29.70;;;6.60;83.10;;;;;;5006186;28;20214;-72
2021/11/13 08:29:24;;;;;;;32.33;29.67;;;6.60;82.90;;;;;;5006971;28;20198;-72
2021/11/13 08:31:52;;;;;;;29.90;27.70;;;6.60;83.10;;;;;;5011506;28;20198;-74
2021/11/13 08:34:19;;;;;;;30.60;28.38;;;6.70;82.90;;;;;;5005761;28;20249;-76
2021/11/13 08:36:47;;;;;;;31.23;29.00;;;6.80;82.50;;;;;;5007605;28;20695;-74
2021/11/13 08:39:14;;;;;;;29.13;27.15;;;7.00;82.00;;;;;;5006060;28;20317;-75
2021/11/13 08:41:41;;;;;;;28.98;26.73;;;7.00;81.80;;;;;;5005345;28;20190;-75
2021/11/13 08:44:09;;;;;;;30.67;28.48;;;7.00;81.80;;;;;;5006025;28;20639;-74
2021/11/13 08:46:36;;;;;;;31.92;29.42;;;7.10;82.00;;;;;;5007779;28;20284;-75
2021/11/13 08:49:06;;;;;;;31.20;29.10;;;7.20;81.60;;;;;;5000880;28;20579;-77
2021/11/13 08:51:33;;;;;;;30.58;28.58;;;7.30;81.20;;;;;;5007091;28;20194;-75
2021/11/13 08:54:01;;;;;;;31.13;28.77;;;7.30;81.60;;;;;;5004994;28;20218;-76
2021/11/13 08:56:31;;;;;;;31.30;29.10;;;7.30;82.30;;;;;;5005177;28;20190;-74
2021/11/13 08:58:59;;;;;;;29.05;26.95;;;7.20;82.90;;;;;;5006161;28;20296;-75
2021/11/13 09:01:29;;;;;;;32.33;29.75;;;7.30;83.50;;;;;;5007534;28;20200;-77
2021/11/13 09:03:57;;;;;;;30.90;28.63;;;7.30;83.60;;;;;;5005600;28;20268;-76
2021/11/13 09:06:29;;;;;;;31.85;29.45;;;7.40;83.40;;;;;;4998446;28;20271;-76
2021/11/13 09:08:56;;;;;;;29.05;26.90;;;7.50;83.20;;;;;;5005017;28;20301;-76
2021/11/13 09:11:28;;;;;;;31.42;29.17;;;7.50;83.00;;;;;;5008075;28;20205;-76
2021/11/13 09:13:57;;;;;;;28.33;26.42;;;7.50;83.20;;;;;;5005796;28;20232;-75
2021/11/13 09:16:25;;;;;;;30.45;28.33;;;7.70;83.00;;;;;;5008500;28;20308;-78
2021/11/13 09:18:52;;;;;;;29.40;27.38;;;7.80;82.80;;;;;;5007244;28;20198;-77
2021/11/13 09:21:19;;;;;;;31.38;29.27;;;8.00;82.70;;;;;;5002252;28;20300;-81
2021/11/13 09:23:47;;;;;;;29.83;27.83;;;8.20;82.40;;;;;;5005040;28;20305;-72
2021/11/13 09:26:14;;;;;;;30.42;28.13;;;8.40;82.00;;;;;;5007439;28;20870;-73
2021/11/13 09:28:43;;;;;;;31.63;29.35;;;8.60;81.00;;;;;;5005064;28;20205;-73
2021/11/13 09:31:10;;;;;;;30.27;28.10;;;8.80;80.20;;;;;;5004869;28;20198;-72
2021/11/13 09:33:38;;;;;;;30.02;28.13;;;8.90;79.60;;;;;;5005582;28;20229;-73
2021/11/13 09:36:05;;;;;;;29.80;27.80;;;9.00;79.20;;;;;;5000048;28;20214;-72
2021/11/13 09:38:35;;;;;;;29.38;27.58;;;9.20;78.70;;;;;;5002815;28;20683;-72
2021/11/13 09:41:06;;;;;;;28.57;26.77;;;9.30;78.00;;;;;;5006352;28;20202;-72
2021/11/13 09:43:34;;;;;;;29.40;26.45;;;9.40;77.90;;;;;;5003113;28;20484;-72
2021/11/13 09:46:05;;;;;;;29.47;27.43;;;9.50;78.10;;;;;;5006530;28;20200;-72
2021/11/13 09:48:32;;;;;;;29.90;27.80;;;9.70;77.50;;;;;;5007323;28;20467;-72
2021/11/13 09:50:59;;;;;;;31.87;29.27;;;9.90;76.30;;;;;;5007429;28;20807;-73
2021/11/13 09:53:30;;;;;;;29.90;27.73;;;10.10;75.20;;;;;;5005980;28;20476;-73
2021/11/13 09:55:58;;;;;;;30.07;28.10;;;10.20;74.40;;;;;;5004424;28;20483;-73
2021/11/13 09:58:26;;;;;;;28.30;26.60;;;10.30;73.60;;;;;;5006299;28;20465;-73
2021/11/13 10:00:53;;;;;;;32.00;30.10;;;10.40;73.60;;;;;;5006425;28;20467;-72
2021/11/13 10:03:22;;;;;;;30.90;28.80;;;10.50;73.30;;;;;;5004158;28;20485;-72
2021/11/13 10:05:50;;;;;;;30.00;27.90;;;10.60;73.20;;;;;;5006995;28;20571;-73
2021/11/13 10:08:18;;;;;;;29.10;27.10;;;10.50;73.50;;;;;;5005071;28;20575;-72
2021/11/13 10:10:45;;;;;;;31.90;29.80;;;10.60;74.10;;;;;;5005372;28;20810;-73
2021/11/13 10:13:31;;;;;;;27.77;26.07;;;10.50;74.80;;;;;;5004189;28;21109;-73
2021/11/13 10:16:01;;;;;;;27.73;25.83;;;10.60;74.80;;;;;;4995720;28;20515;-72
2021/11/13 10:18:31;;;;;;;28.23;26.43;;;10.80;74.00;;;;;;5001246;28;20551;-71
2021/11/13 10:21:05;;;;;;;29.43;27.53;;;11.00;73.90;;;;;;5005230;28;20464;-73
2021/11/13 10:23:40;;;;;;;29.83;28.00;;;11.00;73.90;;;;;;5003062;28;20488;-72
2021/11/13 10:26:10;;;;;;;30.07;28.03;;;11.00;73.90;;;;;;5003773;28;20452;-73
2021/11/13 10:28:54;;;;;;;31.27;29.10;;;10.90;74.30;;;;;;5004210;28;20584;-72
2021/11/13 10:31:23;;;;;;;27.47;25.77;;;11.00;74.70;;;;;;5007080;28;20620;-73
2021/11/13 10:33:54;;;;;;;28.43;26.60;;;11.00;74.60;;;;;;4999643;28;21064;-72
2021/11/13 10:36:25;;;;;;;28.60;26.80;;;10.90;74.70;;;;;;5003473;28;20481;-72
2021/11/13 10:39:02;;;;;;;28.43;26.53;;;10.90;75.20;;;;;;5002152;28;20560;-73
2021/11/13 10:41:29;;;;;;;28.57;26.60;;;10.90;75.40;;;;;;5009832;28;21053;-72
2021/11/13 10:43:56;;;;;;;27.60;25.80;;;10.90;75.20;;;;;;5006653;28;20931;-72
2021/11/13 10:46:25;;;;;;;35.03;32.17;;;11.00;74.80;;;;;;5009241;28;20956;-72
2021/11/13 10:48:56;;;;;;;34.00;31.50;;;11.00;73.60;;;;;;5002843;28;20494;-72
2021/11/13 10:51:25;;;;;;;36.63;33.70;;;10.80;74.20;;;;;;5003384;28;20469;-73
2021/11/13 10:53:52;;;;;;;33.87;31.47;;;10.70;74.10;;;;;;5006143;28;20484;-72
2021/11/13 10:56:21;;;;;;;35.17;32.57;;;10.80;73.30;;;;;;5006392;28;20881;-73
2021/11/13 10:58:57;;;;;;;35.10;32.60;;;10.50;74.60;;;;;;5006850;28;20544;-72
2021/11/13 11:01:36;;;;;;;36.00;33.30;;;10.50;74.60;;;;;;5007536;28;20869;-71
2021/11/13 11:04:10;;;;;;;35.20;32.57;;;10.20;75.10;;;;;;5005452;28;20473;-73
2021/11/13 11:06:38;;;;;;;37.73;34.97;;;10.10;75.80;;;;;;5008616;28;20456;-73
2021/11/13 11:09:23;;;;;;;34.70;32.17;;;10.20;75.60;;;;;;4993447;28;20670;-73
2021/11/13 11:11:52;;;;;;;35.33;32.73;;;10.00;77.10;;;;;;5007368;28;20980;-72
2021/11/13 11:14:21;;;;;;;36.67;33.87;;;9.90;77.30;;;;;;5000259;28;20544;-72
2021/11/13 11:16:52;;;;;;;36.77;34.07;;;10.00;76.10;;;;;;5006613;28;20491;-72
2021/11/13 11:19:24;;;;;;;34.80;32.40;;;9.80;75.90;;;;;;5007583;28;20479;-72
2021/11/13 11:22:03;;;;;;;36.63;33.77;;;9.70;76.30;;;;;;5004905;28;20562;-72
2021/11/13 11:24:36;;;;;;;37.43;34.53;;;9.60;76.60;;;;;;5007243;28;20460;-71
2021/11/13 11:27:11;;;;;;;36.10;33.17;;;9.60;77.10;;;;;;5009153;28;20818;-72
2021/11/13 11:29:44;;;;;;;38.57;35.70;;;9.50;77.80;;;;;;5008294;28;21117;-72
2021/11/13 11:32:15;;;;;;;37.10;34.30;;;9.50;77.90;;;;;;5007802;28;20457;-72
2021/11/13 11:34:45;;;;;;;35.13;32.53;;;9.60;78.00;;;;;;5006714;28;20456;-75
2021/11/13 11:37:16;;;;;;;35.87;33.27;;;9.60;78.30;;;;;;5011345;28;20476;-74
2021/11/13 11:39:45;;;;;;;37.10;33.93;;;9.50;78.30;;;;;;5006151;28;20540;-73
2021/11/13 11:42:13;;;;;;;37.33;34.57;;;9.60;78.60;;;;;;5008831;28;20461;-73
2021/11/13 11:44:43;;;;;;;37.13;34.40;;;9.60;79.00;;;;;;5007782;28;20934;-73
2021/11/13 11:47:12;;;;;;;38.50;35.73;;;9.60;79.10;;;;;;5009318;28;20958;-73
2021/11/13 11:49:43;;;;;;;37.57;34.37;;;9.70;78.60;;;;;;5008495;28;20461;-72
2021/11/13 11:52:12;;;;;;;36.30;33.50;;;9.50;78.50;;;;;;5007207;28;20962;-73
2021/11/13 11:54:39;;;;;;;35.40;32.90;;;9.50;78.70;;;;;;5004168;28;20456;-73
2021/11/13 11:57:06;;;;;;;37.27;34.53;;;9.50;78.80;;;;;;5009487;28;20870;-74
2021/11/13 11:59:36;;;;;;;39.07;35.77;;;9.50;78.60;;;;;;5008286;28;20471;-77
2021/11/13 12:02:14;;;;;;;36.40;33.70;;;9.50;78.80;;;;;;5009599;28;20453;-75
2021/11/13 12:04:43;;;;;;;36.57;33.67;;;9.50;78.90;;;;;;5007799;28;20456;-75
2021/11/13 12:07:13;;;;;;;38.30;35.33;;;9.50;79.10;;;;;;5008676;28;20471;-77
2021/11/13 12:10:05;;;;;;;37.93;34.77;;;9.60;79.30;;;;;;5008442;28;20461;-76
2021/11/13 12:12:32;;;;;;;34.43;31.67;;;9.70;79.50;;;;;;5003236;28;21010;-78
2021/11/13 12:15:13;;;;;;;37.87;34.87;;;9.80;79.40;;;;;;5008362;28;20519;-75
2021/11/13 12:17:40;;;;;;;38.40;35.40;;;9.80;79.60;;;;;;5009484;28;20826;-75
2021/11/13 12:20:33;;;;;;;37.13;34.23;;;9.90;79.10;;;;;;5007308;28;20497;-75
2021/11/13 12:23:16;;;;;;;38.03;35.13;;;10.00;78.80;;;;;;5008485;28;20519;-75
2021/11/13 12:26:01;;;;;;;39.37;35.90;;;10.10;78.40;;;;;;4997789;28;20457;-76
2021/11/13 12:28:30;;;;;;;40.93;37.43;;;10.20;79.10;;;;;;5007544;28;20551;-75
2021/11/13 12:31:08;;;;;;;36.27;33.67;;;10.30;77.90;;;;;;5000911;28;20463;-78
2021/11/13 12:34:03;;;;;;;36.77;34.00;;;10.40;77.50;;;;;;5006243;28;20608;-75
2021/11/13 12:36:36;;;;;;;38.13;35.30;;;10.40;77.50;;;;;;5009077;28;20476;-78
2021/11/13 12:39:12;;;;;;;36.50;33.80;;;10.40;77.30;;;;;;5006263;28;20808;-75
2021/11/13 12:41:49;;;;;;;37.90;35.03;;;10.40;77.00;;;;;;4999013;28;20465;-74
2021/11/13 12:44:21;;;;;;;38.23;35.40;;;10.50;77.40;;;;;;5003864;28;20472;-74